MSC Vigo — A8ZV8 — position and weather

sailwx.info

Track history (hours):
 
Tides and Currents Weather Stations Pressure Air Temp Water Temp Dewpoint Dewpoint Depression Visibility Wind Speed Wind Dir Waves Ship Positions

MSC Vigo

Last reported at 2015-May-22 12:11 UTC. Time now 2015-May-22 13:08 UTC.
Position N 39°26' W 000°19'.

Length 270 m; draft 11 m.

Type: Ship (hazmat cat A). MMSI: 636092276.

Date/timePositionNaut miles runAvg speedWind from/ knotsBaromVisibWave heightAir tempDewpointWater temp
2015-May-22 12:11N 39°26' W 000°19'0 0.0
2015-May-22 11:11N 39°26' W 000°19'0 0.0
2015-May-22 10:32N 39°26' W 000°19'0 0.0
2015-May-22 09:31N 39°26' W 000°19'0 0.0
2015-May-22 08:31N 39°26' W 000°19'0 0.0
2015-May-22 07:28N 39°26' W 000°19'0 0.0
2015-May-22 06:16N 39°26' W 000°19'0 0.0
2015-May-22 05:25N 39°26' W 000°19'0 0.0
2015-May-22 04:33N 39°26' W 000°19'9 8.7
2015-May-22 03:34N 39°25' W 000°08'321 8.0
2015-May-20 11:20N 43°10' E 004°58'1114.3
2015-May-20 10:33N 43°21' E 004°58'7 1.4
2015-May-20 05:33N 43°25' E 004°50'0 0.0
2015-May-20 04:21N 43°25' E 004°50'0 0.0
2015-May-20 00:33N 43°25' E 004°50'0 0.0
2015-May-19 23:33N 43°25' E 004°50'0 0.0
2015-May-19 22:09N 43°25' E 004°50'0 0.0
2015-May-19 21:33N 43°25' E 004°50'0 0.0
2015-May-19 20:18N 43°25' E 004°50'0 0.0
2015-May-19 19:33N 43°25' E 004°50'0 0.0
2015-May-19 18:33N 43°25' E 004°50'0 0.0
2015-May-19 17:33N 43°25' E 004°50'2 2.0
2015-May-19 16:33N 43°24' E 004°53'1111.1
2015-May-19 15:34N 43°15' E 005°01'6117.3
2015-May-19 12:03N 42°54' E 006°19'1019.7
2015-May-19 11:33N 42°59' E 006°31'2214.8
2015-May-19 10:04N 43°08' E 006°58'510.2
2015-May-19 09:32N 43°09' E 007°06'1010.0
2015-May-19 08:32N 43°15' E 007°17'1818.8
2015-May-19 07:33N 43°26' E 007°37'2019.4
2015-May-19 06:30N 43°38' E 007°59'1919.7
2015-May-19 05:32N 43°50' E 008°20'1919.6
2015-May-19 04:33N 44°07' E 008°35'1818.4
2015-May-19 03:33N 44°24' E 008°44'3 2.7
2015-May-19 02:32N 44°25' E 008°47'0 0.0
2015-May-19 00:20N 44°25' E 008°47'0 0.0
2015-May-18 23:29N 44°25' E 008°47'0 0.0
2015-May-18 22:32N 44°25' E 008°47'0 0.0
2015-May-18 20:32N 44°25' E 008°47'0 0.0
2015-May-18 19:26N 44°25' E 008°47'0 0.0
2015-May-18 18:32N 44°25' E 008°47'0 0.0
2015-May-18 17:32N 44°25' E 008°47'0 0.0
2015-May-18 16:29N 44°25' E 008°47'0 0.0
2015-May-18 15:32N 44°25' E 008°47'0 0.0
2015-May-18 14:29N 44°25' E 008°47'0 0.0
2015-May-18 13:32N 44°25' E 008°47'0 0.0
2015-May-18 12:32N 44°25' E 008°47'0 0.0
2015-May-18 11:32N 44°25' E 008°47'0 0.0
2015-May-18 10:32N 44°25' E 008°47'0 0.0
2015-May-18 09:32N 44°25' E 008°47'0 0.0
2015-May-18 08:32N 44°25' E 008°47'0 0.0
2015-May-18 07:32N 44°25' E 008°47'0 0.0
2015-May-18 06:32N 44°25' E 008°47'0 0.0
2015-May-18 05:32N 44°25' E 008°47'0 0.0
2015-May-18 04:32N 44°25' E 008°47'0 0.0
2015-May-18 03:32N 44°25' E 008°47'0 0.0
2015-May-18 02:32N 44°25' E 008°47'0 0.0
2015-May-18 01:32N 44°25' E 008°47'0 0.0
2015-May-18 00:29N 44°25' E 008°47'0 0.0
2015-May-17 23:32N 44°25' E 008°47'0 0.0
2015-May-17 22:26N 44°25' E 008°47'0 0.0
2015-May-17 21:32N 44°25' E 008°47'0 0.0
2015-May-17 20:32N 44°25' E 008°47'0 0.0
2015-May-17 19:32N 44°25' E 008°47'0 0.0
2015-May-17 18:34N 44°25' E 008°47'3 3.1
2015-May-17 17:34N 44°23' E 008°44'1313.5
2015-May-17 16:34N 44°13' E 008°56'1514.6
2015-May-17 15:33N 44°03' E 009°11'1514.6
2015-May-17 14:34N 43°53' E 009°26'1514.5
2015-May-17 13:33N 43°43' E 009°41'1514.8
2015-May-17 12:33N 43°33' E 009°56'1212.4
2015-May-17 11:33N 43°31' E 010°13'5 5.2
2015-May-17 10:32N 43°35' E 010°18'0 0.0
2015-May-17 09:32N 43°35' E 010°18'0 0.0
2015-May-17 08:29N 43°35' E 010°18'0 0.0
2015-May-17 07:29N 43°35' E 010°18'0 0.0
2015-May-17 06:29N 43°35' E 010°18'0 0.0
2015-May-17 05:32N 43°35' E 010°18'0 0.0
2015-May-17 04:29N 43°35' E 010°18'0 0.0
2015-May-17 03:32N 43°35' E 010°18'0 0.0
2015-May-17 02:32N 43°35' E 010°18'0 0.0
2015-May-17 01:32N 43°35' E 010°18'0 0.0
2015-May-17 00:29N 43°35' E 010°18'0 0.0
2015-May-16 23:32N 43°35' E 010°18'0 0.0
2015-May-16 22:32N 43°35' E 010°18'0 0.0
2015-May-16 21:32N 43°35' E 010°18'0 0.0
2015-May-16 20:32N 43°35' E 010°18'0 0.0
2015-May-16 19:32N 43°35' E 010°18'0 0.0
2015-May-16 18:29N 43°35' E 010°18'0 0.0
2015-May-16 17:32N 43°35' E 010°18'0 0.0
2015-May-16 16:29N 43°35' E 010°18'0 0.0
2015-May-16 15:32N 43°35' E 010°18'0 0.0
2015-May-16 14:32N 43°35' E 010°18'0 0.0
2015-May-16 13:32N 43°35' E 010°18'0 0.0
2015-May-16 12:32N 43°35' E 010°18'0 0.0
2015-May-16 11:32N 43°35' E 010°18'0 0.0
2015-May-16 10:32N 43°35' E 010°18'0 0.0
2015-May-16 09:32N 43°35' E 010°18'0 0.0
2015-May-16 08:32N 43°35' E 010°18'0 0.0
2015-May-16 07:32N 43°35' E 010°18'1 0.6
2015-May-16 06:33N 43°34' E 010°18'5 5.1
2015-May-16 05:33N 43°29' E 010°15'1 1.3
2015-May-16 04:33N 43°28' E 010°15'5 5.2
2015-May-16 03:33N 43°24' E 010°11'1212.0
2015-May-16 02:33N 43°13' E 010°06'1312.2
2015-May-16 01:28N 42°59' E 010°03'2511.4
2015-May-15 23:14N 42°35' E 010°14'912.6
2015-May-15 22:33N 42°29' E 010°23'1412.2
2015-May-15 21:26N 42°20' E 010°36'4212.1
2015-May-15 18:00N 41°48' E 011°12'6911.5 310 / 271007.0 5.4 20.015.4
2015-May-15 12:00N 41°00' E 012°18'4414.6 130 / 131008.0 5.4 2.024.018.821.0
2015-May-15 09:00N 40°30' E 013°00'3112.8 140 / 191009.010.8 23.215.920.0
2015-May-15 06:33N 40°11' E 013°33'1717.4
2015-May-15 05:33N 39°59' E 013°49'1413.5
2015-May-15 04:31N 39°49' E 014°03'1313.6
2015-May-15 03:33N 39°40' E 014°15'1413.5
2015-May-15 02:33N 39°31' E 014°27'1413.7
2015-May-15 01:32N 39°21' E 014°40'79 4.9
2015-May-14 09:22N 38°27' E 015°54'0 0.0
2015-May-14 08:04N 38°27' E 015°54'0 0.0
2015-May-14 07:16N 38°27' E 015°54'41 2.2
2015-May-13 12:24N 38°21' E 015°02'5415.7
2015-May-13 09:00N 38°18' E 013°54'1020.1 230 / 61025.527.0 22.214.1
2015-May-13 08:30N 38°22' E 013°43'1617.3
2015-May-13 07:34N 38°23' E 013°22'1918.8
2015-May-13 06:33N 38°25' E 012°58'813.8
2015-May-13 06:00N 38°24' E 012°48'1423.5 170 / 31025.027.0 20.515.1
2015-May-13 05:23N 38°26' E 012°30'1517.4
2015-May-13 04:33N 38°27' E 012°11'5117.2
2015-May-13 01:33N 38°31' E 011°06'1717.1
2015-May-13 00:34N 38°32' E 010°44'1717.2
2015-May-12 23:33N 38°33' E 010°22'1717.1
2015-May-12 22:33N 38°34' E 010°00'1717.1
2015-May-12 21:33N 38°36' E 009°38'1717.2
2015-May-12 20:33N 38°37' E 009°16'1717.1
2015-May-12 19:33N 38°38' E 008°55'1817.2
2015-May-12 18:32N 38°39' E 008°32'1917.1
2015-May-12 17:27N 38°41' E 008°08'1516.8
2015-May-12 16:33N 38°42' E 007°49'1716.7
2015-May-12 15:33N 38°43' E 007°28'1716.7
2015-May-12 14:33N 38°44' E 007°07'  
Track history (hours):
 
Tides and Currents Weather Stations Pressure Air Temp Water Temp Dewpoint Dewpoint Depression Visibility Wind Speed Wind Dir Waves Ship Positions

MSC Vigo

Last reported at 2015-May-22 12:11 UTC. Time now 2015-May-22 13:08 UTC.
Position N 39°26' W 000°19'.

Length 270 m; draft 11 m.

Type: Ship (hazmat cat A). MMSI: 636092276.

Date/timePositionNaut miles runAvg speedWind from/ knotsBaromVisibWave heightAir tempDewpointWater temp
2015-May-22 12:11N 39°26' W 000°19'0 0.0
2015-May-22 11:11N 39°26' W 000°19'0 0.0
2015-May-22 10:32N 39°26' W 000°19'0 0.0
2015-May-22 09:31N 39°26' W 000°19'0 0.0
2015-May-22 08:31N 39°26' W 000°19'0 0.0
2015-May-22 07:28N 39°26' W 000°19'0 0.0
2015-May-22 06:16N 39°26' W 000°19'0 0.0
2015-May-22 05:25N 39°26' W 000°19'0 0.0
2015-May-22 04:33N 39°26' W 000°19'9 8.7
2015-May-22 03:34N 39°25' W 000°08'321 8.0
2015-May-20 11:20N 43°10' E 004°58'1114.3
2015-May-20 10:33N 43°21' E 004°58'7 1.4
2015-May-20 05:33N 43°25' E 004°50'0 0.0
2015-May-20 04:21N 43°25' E 004°50'0 0.0
2015-May-20 00:33N 43°25' E 004°50'0 0.0
2015-May-19 23:33N 43°25' E 004°50'0 0.0
2015-May-19 22:09N 43°25' E 004°50'0 0.0
2015-May-19 21:33N 43°25' E 004°50'0 0.0
2015-May-19 20:18N 43°25' E 004°50'0 0.0
2015-May-19 19:33N 43°25' E 004°50'0 0.0
2015-May-19 18:33N 43°25' E 004°50'0 0.0
2015-May-19 17:33N 43°25' E 004°50'2 2.0
2015-May-19 16:33N 43°24' E 004°53'1111.1
2015-May-19 15:34N 43°15' E 005°01'6117.3
2015-May-19 12:03N 42°54' E 006°19'1019.7
2015-May-19 11:33N 42°59' E 006°31'2214.8
2015-May-19 10:04N 43°08' E 006°58'510.2
2015-May-19 09:32N 43°09' E 007°06'1010.0
2015-May-19 08:32N 43°15' E 007°17'1818.8
2015-May-19 07:33N 43°26' E 007°37'2019.4
2015-May-19 06:30N 43°38' E 007°59'1919.7
2015-May-19 05:32N 43°50' E 008°20'1919.6
2015-May-19 04:33N 44°07' E 008°35'1818.4
2015-May-19 03:33N 44°24' E 008°44'3 2.7
2015-May-19 02:32N 44°25' E 008°47'0 0.0
2015-May-19 00:20N 44°25' E 008°47'0 0.0
2015-May-18 23:29N 44°25' E 008°47'0 0.0
2015-May-18 22:32N 44°25' E 008°47'0 0.0
2015-May-18 20:32N 44°25' E 008°47'0 0.0
2015-May-18 19:26N 44°25' E 008°47'0 0.0
2015-May-18 18:32N 44°25' E 008°47'0 0.0
2015-May-18 17:32N 44°25' E 008°47'0 0.0
2015-May-18 16:29N 44°25' E 008°47'0 0.0
2015-May-18 15:32N 44°25' E 008°47'0 0.0
2015-May-18 14:29N 44°25' E 008°47'0 0.0
2015-May-18 13:32N 44°25' E 008°47'0 0.0
2015-May-18 12:32N 44°25' E 008°47'0 0.0
2015-May-18 11:32N 44°25' E 008°47'0 0.0
2015-May-18 10:32N 44°25' E 008°47'0 0.0
2015-May-18 09:32N 44°25' E 008°47'0 0.0
2015-May-18 08:32N 44°25' E 008°47'0 0.0
2015-May-18 07:32N 44°25' E 008°47'0 0.0
2015-May-18 06:32N 44°25' E 008°47'0 0.0
2015-May-18 05:32N 44°25' E 008°47'0 0.0
2015-May-18 04:32N 44°25' E 008°47'0 0.0
2015-May-18 03:32N 44°25' E 008°47'0 0.0
2015-May-18 02:32N 44°25' E 008°47'0 0.0
2015-May-18 01:32N 44°25' E 008°47'0 0.0
2015-May-18 00:29N 44°25' E 008°47'0 0.0
2015-May-17 23:32N 44°25' E 008°47'0 0.0
2015-May-17 22:26N 44°25' E 008°47'0 0.0
2015-May-17 21:32N 44°25' E 008°47'0 0.0
2015-May-17 20:32N 44°25' E 008°47'0 0.0
2015-May-17 19:32N 44°25' E 008°47'0 0.0
2015-May-17 18:34N 44°25' E 008°47'3 3.1
2015-May-17 17:34N 44°23' E 008°44'1313.5
2015-May-17 16:34N 44°13' E 008°56'1514.6
2015-May-17 15:33N 44°03' E 009°11'1514.6
2015-May-17 14:34N 43°53' E 009°26'1514.5
2015-May-17 13:33N 43°43' E 009°41'1514.8
2015-May-17 12:33N 43°33' E 009°56'1212.4
2015-May-17 11:33N 43°31' E 010°13'5 5.2
2015-May-17 10:32N 43°35' E 010°18'0 0.0
2015-May-17 09:32N 43°35' E 010°18'0 0.0
2015-May-17 08:29N 43°35' E 010°18'0 0.0
2015-May-17 07:29N 43°35' E 010°18'0 0.0
2015-May-17 06:29N 43°35' E 010°18'0 0.0
2015-May-17 05:32N 43°35' E 010°18'0 0.0
2015-May-17 04:29N 43°35' E 010°18'0 0.0
2015-May-17 03:32N 43°35' E 010°18'0 0.0
2015-May-17 02:32N 43°35' E 010°18'0 0.0
2015-May-17 01:32N 43°35' E 010°18'0 0.0
2015-May-17 00:29N 43°35' E 010°18'0 0.0
2015-May-16 23:32N 43°35' E 010°18'0 0.0
2015-May-16 22:32N 43°35' E 010°18'0 0.0
2015-May-16 21:32N 43°35' E 010°18'0 0.0
2015-May-16 20:32N 43°35' E 010°18'0 0.0
2015-May-16 19:32N 43°35' E 010°18'0 0.0
2015-May-16 18:29N 43°35' E 010°18'0 0.0
2015-May-16 17:32N 43°35' E 010°18'0 0.0
2015-May-16 16:29N 43°35' E 010°18'0 0.0
2015-May-16 15:32N 43°35' E 010°18'0 0.0
2015-May-16 14:32N 43°35' E 010°18'0 0.0
2015-May-16 13:32N 43°35' E 010°18'0 0.0
2015-May-16 12:32N 43°35' E 010°18'0 0.0
2015-May-16 11:32N 43°35' E 010°18'0 0.0
2015-May-16 10:32N 43°35' E 010°18'0 0.0
2015-May-16 09:32N 43°35' E 010°18'0 0.0
2015-May-16 08:32N 43°35' E 010°18'0 0.0
2015-May-16 07:32N 43°35' E 010°18'1 0.6
2015-May-16 06:33N 43°34' E 010°18'5 5.1
2015-May-16 05:33N 43°29' E 010°15'1 1.3
2015-May-16 04:33N 43°28' E 010°15'5 5.2
2015-May-16 03:33N 43°24' E 010°11'1212.0
2015-May-16 02:33N 43°13' E 010°06'1312.2
2015-May-16 01:28N 42°59' E 010°03'2511.4
2015-May-15 23:14N 42°35' E 010°14'912.6
2015-May-15 22:33N 42°29' E 010°23'1412.2
2015-May-15 21:26N 42°20' E 010°36'4212.1
2015-May-15 18:00N 41°48' E 011°12'6911.5 310 / 271007.0 5.4 20.015.4
2015-May-15 12:00N 41°00' E 012°18'4414.6 130 / 131008.0 5.4 2.024.018.821.0
2015-May-15 09:00N 40°30' E 013°00'3112.8 140 / 191009.010.8 23.215.920.0
2015-May-15 06:33N 40°11' E 013°33'1717.4
2015-May-15 05:33N 39°59' E 013°49'1413.5
2015-May-15 04:31N 39°49' E 014°03'1313.6
2015-May-15 03:33N 39°40' E 014°15'1413.5
2015-May-15 02:33N 39°31' E 014°27'1413.7
2015-May-15 01:32N 39°21' E 014°40'79 4.9
2015-May-14 09:22N 38°27' E 015°54'0 0.0
2015-May-14 08:04N 38°27' E 015°54'0 0.0
2015-May-14 07:16N 38°27' E 015°54'41 2.2
2015-May-13 12:24N 38°21' E 015°02'5415.7
2015-May-13 09:00N 38°18' E 013°54'1020.1 230 / 61025.527.0 22.214.1
2015-May-13 08:30N 38°22' E 013°43'1617.3
2015-May-13 07:34N 38°23' E 013°22'1918.8
2015-May-13 06:33N 38°25' E 012°58'813.8
2015-May-13 06:00N 38°24' E 012°48'1423.5 170 / 31025.027.0 20.515.1
2015-May-13 05:23N 38°26' E 012°30'1517.4
2015-May-13 04:33N 38°27' E 012°11'5117.2
2015-May-13 01:33N 38°31' E 011°06'1717.1
2015-May-13 00:34N 38°32' E 010°44'1717.2
2015-May-12 23:33N 38°33' E 010°22'1717.1
2015-May-12 22:33N 38°34' E 010°00'1717.1
2015-May-12 21:33N 38°36' E 009°38'1717.2
2015-May-12 20:33N 38°37' E 009°16'1717.1
2015-May-12 19:33N 38°38' E 008°55'1817.2
2015-May-12 18:32N 38°39' E 008°32'1917.1
2015-May-12 17:27N 38°41' E 008°08'1516.8
2015-May-12 16:33N 38°42' E 007°49'1716.7
2015-May-12 15:33N 38°43' E 007°28'1716.7
2015-May-12 14:33N 38°44' E 007°07'  

Dump ship's entire track history